sensor_id;sensor_type;location;lat;lon;timestamp;pressure;altitude;pressure_sealevel;temperature
19282;BMP180;9774;52.034;5.342;2023-08-08T00:02:25;101250.00;;;20.60
19282;BMP180;9774;52.034;5.342;2023-08-08T00:04:53;101241.00;;;20.60
19282;BMP180;9774;52.034;5.342;2023-08-08T00:07:21;101236.00;;;20.60
19282;BMP180;9774;52.034;5.342;2023-08-08T00:09:48;101238.00;;;20.60
19282;BMP180;9774;52.034;5.342;2023-08-08T00:12:15;101237.00;;;20.60
19282;BMP180;9774;52.034;5.342;2023-08-08T00:14:42;101233.00;;;20.60
19282;BMP180;9774;52.034;5.342;2023-08-08T00:17:09;101230.00;;;20.60
19282;BMP180;9774;52.034;5.342;2023-08-08T00:19:36;101236.00;;;20.60
19282;BMP180;9774;52.034;5.342;2023-08-08T00:22:03;101226.00;;;20.60
19282;BMP180;9774;52.034;5.342;2023-08-08T00:24:32;101228.00;;;20.70
19282;BMP180;9774;52.034;5.342;2023-08-08T00:26:59;101225.00;;;20.70
19282;BMP180;9774;52.034;5.342;2023-08-08T00:29:26;101224.00;;;20.70
19282;BMP180;9774;52.034;5.342;2023-08-08T00:31:53;101224.00;;;20.80
19282;BMP180;9774;52.034;5.342;2023-08-08T00:34:20;101233.00;;;20.80
19282;BMP180;9774;52.034;5.342;2023-08-08T00:36:47;101234.00;;;20.80
19282;BMP180;9774;52.034;5.342;2023-08-08T00:39:14;101232.00;;;20.80
19282;BMP180;9774;52.034;5.342;2023-08-08T00:41:42;101232.00;;;20.80
19282;BMP180;9774;52.034;5.342;2023-08-08T00:44:09;101224.00;;;20.90
19282;BMP180;9774;52.034;5.342;2023-08-08T00:46:36;101226.00;;;20.90
19282;BMP180;9774;52.034;5.342;2023-08-08T00:49:03;101232.00;;;20.90
19282;BMP180;9774;52.034;5.342;2023-08-08T00:51:31;101224.00;;;21.00
19282;BMP180;9774;52.034;5.342;2023-08-08T00:54:00;101221.00;;;21.00
19282;BMP180;9774;52.034;5.342;2023-08-08T00:56:27;101214.00;;;21.00
19282;BMP180;9774;52.034;5.342;2023-08-08T00:58:55;101209.00;;;21.00
19282;BMP180;9774;52.034;5.342;2023-08-08T01:01:22;101221.00;;;21.00
19282;BMP180;9774;52.034;5.342;2023-08-08T01:03:49;101220.00;;;21.10
19282;BMP180;9774;52.034;5.342;2023-08-08T01:06:29;101227.00;;;21.00
19282;BMP180;9774;52.034;5.342;2023-08-08T01:09:04;101217.00;;;21.00
19282;BMP180;9774;52.034;5.342;2023-08-08T01:11:33;101220.00;;;21.10
19282;BMP180;9774;52.034;5.342;2023-08-08T01:14:03;101209.00;;;21.10
19282;BMP180;9774;52.034;5.342;2023-08-08T01:16:33;101206.00;;;21.10
19282;BMP180;9774;52.034;5.342;2023-08-08T01:19:01;101209.00;;;21.10
19282;BMP180;9774;52.034;5.342;2023-08-08T01:21:31;101205.00;;;21.10
19282;BMP180;9774;52.034;5.342;2023-08-08T01:24:16;101207.00;;;21.00
19282;BMP180;9774;52.034;5.342;2023-08-08T01:26:44;101207.00;;;21.10
19282;BMP180;9774;52.034;5.342;2023-08-08T01:29:11;101210.00;;;21.10
19282;BMP180;9774;52.034;5.342;2023-08-08T01:31:38;101218.00;;;21.10
19282;BMP180;9774;52.034;5.342;2023-08-08T01:34:05;101215.00;;;21.10
19282;BMP180;9774;52.034;5.342;2023-08-08T01:36:39;101217.00;;;21.10
19282;BMP180;9774;52.034;5.342;2023-08-08T01:39:16;101214.00;;;21.10
19282;BMP180;9774;52.034;5.342;2023-08-08T01:41:46;101210.00;;;21.10
19282;BMP180;9774;52.034;5.342;2023-08-08T01:44:15;101208.00;;;21.10
19282;BMP180;9774;52.034;5.342;2023-08-08T01:46:45;101216.00;;;21.10
19282;BMP180;9774;52.034;5.342;2023-08-08T01:49:12;101207.00;;;21.10
19282;BMP180;9774;52.034;5.342;2023-08-08T01:51:39;101207.00;;;21.10
19282;BMP180;9774;52.034;5.342;2023-08-08T01:54:06;101200.00;;;21.10
19282;BMP180;9774;52.034;5.342;2023-08-08T01:56:34;101192.00;;;21.00
19282;BMP180;9774;52.034;5.342;2023-08-08T01:59:01;101191.00;;;21.00
19282;BMP180;9774;52.034;5.342;2023-08-08T02:01:28;101187.00;;;21.00
19282;BMP180;9774;52.034;5.342;2023-08-08T02:03:55;101193.00;;;21.00
19282;BMP180;9774;52.034;5.342;2023-08-08T02:06:22;101191.00;;;21.00
19282;BMP180;9774;52.034;5.342;2023-08-08T02:08:49;101199.00;;;21.00
19282;BMP180;9774;52.034;5.342;2023-08-08T02:11:16;101196.00;;;21.00
19282;BMP180;9774;52.034;5.342;2023-08-08T02:13:44;101188.00;;;21.00
19282;BMP180;9774;52.034;5.342;2023-08-08T02:16:11;101188.00;;;21.00
19282;BMP180;9774;52.034;5.342;2023-08-08T02:18:38;101190.00;;;21.00
19282;BMP180;9774;52.034;5.342;2023-08-08T02:21:06;101180.00;;;21.00
19282;BMP180;9774;52.034;5.342;2023-08-08T02:23:34;101181.00;;;21.00
19282;BMP180;9774;52.034;5.342;2023-08-08T02:26:01;101176.00;;;21.00
19282;BMP180;9774;52.034;5.342;2023-08-08T02:28:28;101175.00;;;21.00
19282;BMP180;9774;52.034;5.342;2023-08-08T02:30:56;101173.00;;;21.00
19282;BMP180;9774;52.034;5.342;2023-08-08T02:33:23;101171.00;;;21.00
19282;BMP180;9774;52.034;5.342;2023-08-08T02:35:50;101169.00;;;20.90
19282;BMP180;9774;52.034;5.342;2023-08-08T02:38:17;101170.00;;;20.90
19282;BMP180;9774;52.034;5.342;2023-08-08T02:40:44;101177.00;;;20.90
19282;BMP180;9774;52.034;5.342;2023-08-08T02:43:11;101168.00;;;20.90
19282;BMP180;9774;52.034;5.342;2023-08-08T02:45:38;101164.00;;;20.90
19282;BMP180;9774;52.034;5.342;2023-08-08T02:48:06;101162.00;;;20.90
19282;BMP180;9774;52.034;5.342;2023-08-08T02:50:33;101160.00;;;20.90
19282;BMP180;9774;52.034;5.342;2023-08-08T02:53:00;101168.00;;;20.90
19282;BMP180;9774;52.034;5.342;2023-08-08T02:55:27;101170.00;;;20.90
19282;BMP180;9774;52.034;5.342;2023-08-08T02:57:54;101172.00;;;20.90
19282;BMP180;9774;52.034;5.342;2023-08-08T03:00:22;101168.00;;;20.80
19282;BMP180;9774;52.034;5.342;2023-08-08T03:02:48;101162.00;;;20.80
19282;BMP180;9774;52.034;5.342;2023-08-08T03:05:17;101159.00;;;20.80
19282;BMP180;9774;52.034;5.342;2023-08-08T03:07:44;101162.00;;;20.80
19282;BMP180;9774;52.034;5.342;2023-08-08T03:10:11;101160.00;;;20.80
19282;BMP180;9774;52.034;5.342;2023-08-08T03:12:38;101164.00;;;20.80
19282;BMP180;9774;52.034;5.342;2023-08-08T03:15:08;101167.00;;;20.80
19282;BMP180;9774;52.034;5.342;2023-08-08T03:17:36;101159.00;;;20.80
19282;BMP180;9774;52.034;5.342;2023-08-08T03:20:04;101157.00;;;20.80
19282;BMP180;9774;52.034;5.342;2023-08-08T03:22:33;101148.00;;;20.70
19282;BMP180;9774;52.034;5.342;2023-08-08T03:25:00;101151.00;;;20.70
19282;BMP180;9774;52.034;5.342;2023-08-08T03:27:29;101156.00;;;20.70
19282;BMP180;9774;52.034;5.342;2023-08-08T03:29:56;101153.00;;;20.70
19282;BMP180;9774;52.034;5.342;2023-08-08T03:32:24;101158.00;;;20.70
19282;BMP180;9774;52.034;5.342;2023-08-08T03:34:51;101154.00;;;20.70
19282;BMP180;9774;52.034;5.342;2023-08-08T03:37:18;101154.00;;;20.70
19282;BMP180;9774;52.034;5.342;2023-08-08T03:39:46;101151.00;;;20.70
19282;BMP180;9774;52.034;5.342;2023-08-08T03:42:13;101151.00;;;20.70
19282;BMP180;9774;52.034;5.342;2023-08-08T03:44:40;101147.00;;;20.70
19282;BMP180;9774;52.034;5.342;2023-08-08T03:47:07;101146.00;;;20.70
19282;BMP180;9774;52.034;5.342;2023-08-08T03:49:34;101142.00;;;20.60
19282;BMP180;9774;52.034;5.342;2023-08-08T03:52:01;101141.00;;;20.70
19282;BMP180;9774;52.034;5.342;2023-08-08T03:54:28;101140.00;;;20.60
19282;BMP180;9774;52.034;5.342;2023-08-08T03:56:56;101146.00;;;20.60
19282;BMP180;9774;52.034;5.342;2023-08-08T03:59:23;101145.00;;;20.60
19282;BMP180;9774;52.034;5.342;2023-08-08T04:01:50;101140.00;;;20.60
19282;BMP180;9774;52.034;5.342;2023-08-08T04:04:17;101139.00;;;20.60
19282;BMP180;9774;52.034;5.342;2023-08-08T04:06:44;101139.00;;;20.60
19282;BMP180;9774;52.034;5.342;2023-08-08T04:09:11;101137.00;;;20.60
19282;BMP180;9774;52.034;5.342;2023-08-08T04:11:38;101138.00;;;20.60
19282;BMP180;9774;52.034;5.342;2023-08-08T04:14:06;101135.00;;;20.60
19282;BMP180;9774;52.034;5.342;2023-08-08T04:16:33;101133.00;;;20.60
19282;BMP180;9774;52.034;5.342;2023-08-08T04:19:00;101135.00;;;20.60
19282;BMP180;9774;52.034;5.342;2023-08-08T04:21:29;101129.00;;;20.60
19282;BMP180;9774;52.034;5.342;2023-08-08T04:23:58;101132.00;;;20.60
19282;BMP180;9774;52.034;5.342;2023-08-08T04:26:25;101132.00;;;20.60
19282;BMP180;9774;52.034;5.342;2023-08-08T04:28:52;101129.00;;;20.60
19282;BMP180;9774;52.034;5.342;2023-08-08T04:31:20;101130.00;;;20.50
19282;BMP180;9774;52.034;5.342;2023-08-08T04:33:50;101130.00;;;20.50
19282;BMP180;9774;52.034;5.342;2023-08-08T04:36:17;101131.00;;;20.60
19282;BMP180;9774;52.034;5.342;2023-08-08T04:38:44;101135.00;;;20.50
19282;BMP180;9774;52.034;5.342;2023-08-08T04:41:11;101126.00;;;20.60
19282;BMP180;9774;52.034;5.342;2023-08-08T04:43:37;101134.00;;;20.60
19282;BMP180;9774;52.034;5.342;2023-08-08T04:46:04;101127.00;;;20.60
19282;BMP180;9774;52.034;5.342;2023-08-08T04:48:33;101132.00;;;20.60
19282;BMP180;9774;52.034;5.342;2023-08-08T04:51:00;101130.00;;;20.60
19282;BMP180;9774;52.034;5.342;2023-08-08T04:53:26;101126.00;;;20.60
19282;BMP180;9774;52.034;5.342;2023-08-08T04:55:53;101128.00;;;20.60
19282;BMP180;9774;52.034;5.342;2023-08-08T04:58:20;101127.00;;;20.60
19282;BMP180;9774;52.034;5.342;2023-08-08T05:00:47;101123.00;;;20.60
19282;BMP180;9774;52.034;5.342;2023-08-08T05:03:16;101129.00;;;20.60
19282;BMP180;9774;52.034;5.342;2023-08-08T05:05:44;101124.00;;;20.60
19282;BMP180;9774;52.034;5.342;2023-08-08T05:08:12;101120.00;;;20.60
19282;BMP180;9774;52.034;5.342;2023-08-08T05:10:39;101130.00;;;20.70
19282;BMP180;9774;52.034;5.342;2023-08-08T05:13:06;101127.00;;;20.70
19282;BMP180;9774;52.034;5.342;2023-08-08T05:15:33;101136.00;;;20.70
19282;BMP180;9774;52.034;5.342;2023-08-08T05:18:00;101129.00;;;20.70
19282;BMP180;9774;52.034;5.342;2023-08-08T05:20:27;101129.00;;;20.70
19282;BMP180;9774;52.034;5.342;2023-08-08T05:22:55;101128.00;;;20.70
19282;BMP180;9774;52.034;5.342;2023-08-08T05:25:22;101128.00;;;20.80
19282;BMP180;9774;52.034;5.342;2023-08-08T05:27:49;101128.00;;;20.80
19282;BMP180;9774;52.034;5.342;2023-08-08T05:30:16;101126.00;;;20.80
19282;BMP180;9774;52.034;5.342;2023-08-08T05:32:43;101129.00;;;20.80
19282;BMP180;9774;52.034;5.342;2023-08-08T05:35:10;101130.00;;;20.80
19282;BMP180;9774;52.034;5.342;2023-08-08T05:37:37;101131.00;;;20.80
19282;BMP180;9774;52.034;5.342;2023-08-08T05:40:07;101128.00;;;20.80
19282;BMP180;9774;52.034;5.342;2023-08-08T05:42:36;101135.00;;;20.90
19282;BMP180;9774;52.034;5.342;2023-08-08T05:45:04;101133.00;;;20.90
19282;BMP180;9774;52.034;5.342;2023-08-08T05:47:32;101142.00;;;20.90
19282;BMP180;9774;52.034;5.342;2023-08-08T05:49:59;101138.00;;;20.90
19282;BMP180;9774;52.034;5.342;2023-08-08T05:52:26;101141.00;;;20.90
19282;BMP180;9774;52.034;5.342;2023-08-08T05:54:53;101139.00;;;20.90
19282;BMP180;9774;52.034;5.342;2023-08-08T05:57:21;101138.00;;;20.90
19282;BMP180;9774;52.034;5.342;2023-08-08T05:59:52;101147.00;;;20.90
19282;BMP180;9774;52.034;5.342;2023-08-08T06:02:19;101143.00;;;21.00
19282;BMP180;9774;52.034;5.342;2023-08-08T06:04:46;101145.00;;;21.00
19282;BMP180;9774;52.034;5.342;2023-08-08T06:07:22;101146.00;;;20.90
19282;BMP180;9774;52.034;5.342;2023-08-08T06:09:50;101144.00;;;21.00
19282;BMP180;9774;52.034;5.342;2023-08-08T06:12:17;101143.00;;;21.10
19282;BMP180;9774;52.034;5.342;2023-08-08T06:14:45;101148.00;;;21.10
19282;BMP180;9774;52.034;5.342;2023-08-08T06:17:13;101146.00;;;21.20
19282;BMP180;9774;52.034;5.342;2023-08-08T06:19:40;101159.00;;;21.20
19282;BMP180;9774;52.034;5.342;2023-08-08T06:22:07;101152.00;;;21.20
19282;BMP180;9774;52.034;5.342;2023-08-08T06:24:34;101158.00;;;21.30
19282;BMP180;9774;52.034;5.342;2023-08-08T06:27:02;101165.00;;;21.30
19282;BMP180;9774;52.034;5.342;2023-08-08T06:29:29;101164.00;;;21.30
19282;BMP180;9774;52.034;5.342;2023-08-08T06:31:57;101165.00;;;21.30
19282;BMP180;9774;52.034;5.342;2023-08-08T06:34:25;101164.00;;;21.40
19282;BMP180;9774;52.034;5.342;2023-08-08T06:36:52;101176.00;;;21.40
19282;BMP180;9774;52.034;5.342;2023-08-08T06:39:19;101164.00;;;21.40
19282;BMP180;9774;52.034;5.342;2023-08-08T06:41:47;101168.00;;;21.50
19282;BMP180;9774;52.034;5.342;2023-08-08T06:44:14;101164.00;;;21.50
19282;BMP180;9774;52.034;5.342;2023-08-08T06:46:41;101164.00;;;21.50
19282;BMP180;9774;52.034;5.342;2023-08-08T06:49:09;101167.00;;;21.60
19282;BMP180;9774;52.034;5.342;2023-08-08T06:51:37;101173.00;;;21.60
19282;BMP180;9774;52.034;5.342;2023-08-08T06:54:04;101168.00;;;21.60
19282;BMP180;9774;52.034;5.342;2023-08-08T06:56:31;101166.00;;;21.70
19282;BMP180;9774;52.034;5.342;2023-08-08T06:58:58;101171.00;;;21.70
19282;BMP180;9774;52.034;5.342;2023-08-08T07:01:26;101171.00;;;21.70
19282;BMP180;9774;52.034;5.342;2023-08-08T07:03:53;101186.00;;;21.80
19282;BMP180;9774;52.034;5.342;2023-08-08T07:06:22;101173.00;;;21.80
19282;BMP180;9774;52.034;5.342;2023-08-08T07:08:49;101165.00;;;21.90
19282;BMP180;9774;52.034;5.342;2023-08-08T07:11:16;101170.00;;;21.90
19282;BMP180;9774;52.034;5.342;2023-08-08T07:13:43;101175.00;;;21.90
19282;BMP180;9774;52.034;5.342;2023-08-08T07:16:10;101171.00;;;22.00
19282;BMP180;9774;52.034;5.342;2023-08-08T07:18:37;101175.00;;;22.00
19282;BMP180;9774;52.034;5.342;2023-08-08T07:21:05;101163.00;;;22.10
19282;BMP180;9774;52.034;5.342;2023-08-08T07:23:34;101173.00;;;22.10
19282;BMP180;9774;52.034;5.342;2023-08-08T07:26:01;101168.00;;;22.20
19282;BMP180;9774;52.034;5.342;2023-08-08T07:28:28;101164.00;;;22.20
19282;BMP180;9774;52.034;5.342;2023-08-08T07:30:55;101169.00;;;22.20
19282;BMP180;9774;52.034;5.342;2023-08-08T07:33:22;101169.00;;;22.30
19282;BMP180;9774;52.034;5.342;2023-08-08T07:35:50;101160.00;;;22.30
19282;BMP180;9774;52.034;5.342;2023-08-08T07:38:17;101163.00;;;22.40
19282;BMP180;9774;52.034;5.342;2023-08-08T07:40:45;101164.00;;;22.50
19282;BMP180;9774;52.034;5.342;2023-08-08T07:43:13;101158.00;;;22.50
19282;BMP180;9774;52.034;5.342;2023-08-08T07:45:41;101156.00;;;22.60
19282;BMP180;9774;52.034;5.342;2023-08-08T07:48:08;101151.00;;;22.60
19282;BMP180;9774;52.034;5.342;2023-08-08T07:50:35;101151.00;;;22.70
19282;BMP180;9774;52.034;5.342;2023-08-08T07:53:03;101149.00;;;22.70
19282;BMP180;9774;52.034;5.342;2023-08-08T07:55:30;101153.00;;;22.80
19282;BMP180;9774;52.034;5.342;2023-08-08T07:57:59;101147.00;;;22.80
19282;BMP180;9774;52.034;5.342;2023-08-08T08:00:26;101148.00;;;22.80
19282;BMP180;9774;52.034;5.342;2023-08-08T08:02:53;101147.00;;;22.90
19282;BMP180;9774;52.034;5.342;2023-08-08T08:05:20;101147.00;;;22.90
19282;BMP180;9774;52.034;5.342;2023-08-08T08:07:48;101152.00;;;23.00
19282;BMP180;9774;52.034;5.342;2023-08-08T08:10:15;101151.00;;;23.00
19282;BMP180;9774;52.034;5.342;2023-08-08T08:12:42;101148.00;;;23.10
19282;BMP180;9774;52.034;5.342;2023-08-08T08:15:11;101151.00;;;23.10
19282;BMP180;9774;52.034;5.342;2023-08-08T08:17:40;101149.00;;;23.20
19282;BMP180;9774;52.034;5.342;2023-08-08T08:20:09;101152.00;;;23.30
19282;BMP180;9774;52.034;5.342;2023-08-08T08:22:37;101151.00;;;23.30
19282;BMP180;9774;52.034;5.342;2023-08-08T08:25:06;101150.00;;;23.30
19282;BMP180;9774;52.034;5.342;2023-08-08T08:27:35;101156.00;;;23.30
19282;BMP180;9774;52.034;5.342;2023-08-08T08:30:03;101154.00;;;23.30
19282;BMP180;9774;52.034;5.342;2023-08-08T08:32:33;101160.00;;;23.40
19282;BMP180;9774;52.034;5.342;2023-08-08T08:35:00;101155.00;;;23.40
19282;BMP180;9774;52.034;5.342;2023-08-08T08:37:29;101157.00;;;23.40
19282;BMP180;9774;52.034;5.342;2023-08-08T08:39:56;101155.00;;;23.50
19282;BMP180;9774;52.034;5.342;2023-08-08T08:42:24;101155.00;;;23.50
19282;BMP180;9774;52.034;5.342;2023-08-08T08:44:54;101159.00;;;23.50
19282;BMP180;9774;52.034;5.342;2023-08-08T08:47:25;101158.00;;;23.50
19282;BMP180;9774;52.034;5.342;2023-08-08T08:49:53;101157.00;;;23.50
19282;BMP180;9774;52.034;5.342;2023-08-08T08:52:21;101151.00;;;23.60
19282;BMP180;9774;52.034;5.342;2023-08-08T08:54:48;101164.00;;;23.60
19282;BMP180;9774;52.034;5.342;2023-08-08T08:57:15;101159.00;;;23.60
19282;BMP180;9774;52.034;5.342;2023-08-08T08:59:43;101166.00;;;23.60
19282;BMP180;9774;52.034;5.342;2023-08-08T09:02:11;101157.00;;;23.60
19282;BMP180;9774;52.034;5.342;2023-08-08T09:04:39;101162.00;;;23.70
19282;BMP180;9774;52.034;5.342;2023-08-08T09:07:10;101163.00;;;23.60
19282;BMP180;9774;52.034;5.342;2023-08-08T09:09:37;101163.00;;;23.70
19282;BMP180;9774;52.034;5.342;2023-08-08T09:12:05;101167.00;;;23.70
19282;BMP180;9774;52.034;5.342;2023-08-08T09:14:32;101159.00;;;23.70
19282;BMP180;9774;52.034;5.342;2023-08-08T09:16:59;101164.00;;;23.70
19282;BMP180;9774;52.034;5.342;2023-08-08T09:19:26;101163.00;;;23.80
19282;BMP180;9774;52.034;5.342;2023-08-08T09:21:53;101168.00;;;23.80
19282;BMP180;9774;52.034;5.342;2023-08-08T09:24:21;101169.00;;;23.70
19282;BMP180;9774;52.034;5.342;2023-08-08T09:26:48;101166.00;;;23.70
19282;BMP180;9774;52.034;5.342;2023-08-08T09:29:15;101167.00;;;23.70
19282;BMP180;9774;52.034;5.342;2023-08-08T09:31:42;101157.00;;;23.70
19282;BMP180;9774;52.034;5.342;2023-08-08T09:34:09;101153.00;;;23.70
19282;BMP180;9774;52.034;5.342;2023-08-08T09:36:38;101155.00;;;23.70
19282;BMP180;9774;52.034;5.342;2023-08-08T09:39:05;101162.00;;;23.80
19282;BMP180;9774;52.034;5.342;2023-08-08T09:41:34;101160.00;;;23.80
19282;BMP180;9774;52.034;5.342;2023-08-08T09:44:02;101160.00;;;23.90
19282;BMP180;9774;52.034;5.342;2023-08-08T09:46:30;101161.00;;;23.90
19282;BMP180;9774;52.034;5.342;2023-08-08T09:48:58;101167.00;;;24.00
19282;BMP180;9774;52.034;5.342;2023-08-08T09:51:26;101163.00;;;24.00
19282;BMP180;9774;52.034;5.342;2023-08-08T09:53:54;101156.00;;;24.00
19282;BMP180;9774;52.034;5.342;2023-08-08T09:56:23;101172.00;;;24.00
19282;BMP180;9774;52.034;5.342;2023-08-08T09:58:52;101159.00;;;24.00
19282;BMP180;9774;52.034;5.342;2023-08-08T10:01:21;101163.00;;;24.00
19282;BMP180;9774;52.034;5.342;2023-08-08T10:03:51;101171.00;;;24.00
19282;BMP180;9774;52.034;5.342;2023-08-08T10:06:19;101173.00;;;24.00
19282;BMP180;9774;52.034;5.342;2023-08-08T10:08:46;101171.00;;;24.00
19282;BMP180;9774;52.034;5.342;2023-08-08T10:11:14;101178.00;;;24.00
19282;BMP180;9774;52.034;5.342;2023-08-08T10:13:48;101177.00;;;23.90
19282;BMP180;9774;52.034;5.342;2023-08-08T10:16:18;101168.00;;;23.90
19282;BMP180;9774;52.034;5.342;2023-08-08T10:18:46;101174.00;;;23.90
19282;BMP180;9774;52.034;5.342;2023-08-08T10:21:22;101176.00;;;23.90
19282;BMP180;9774;52.034;5.342;2023-08-08T10:24:01;101174.00;;;23.90
19282;BMP180;9774;52.034;5.342;2023-08-08T10:26:28;101173.00;;;24.00
19282;BMP180;9774;52.034;5.342;2023-08-08T10:28:56;101176.00;;;24.10
19282;BMP180;9774;52.034;5.342;2023-08-08T10:31:26;101172.00;;;24.20
19282;BMP180;9774;52.034;5.342;2023-08-08T10:34:02;101171.00;;;24.20
19282;BMP180;9774;52.034;5.342;2023-08-08T10:36:49;101174.00;;;24.30
19282;BMP180;9774;52.034;5.342;2023-08-08T10:39:17;101173.00;;;24.50
19282;BMP180;9774;52.034;5.342;2023-08-08T10:41:46;101172.00;;;24.50
19282;BMP180;9774;52.034;5.342;2023-08-08T10:44:21;101178.00;;;24.50
19282;BMP180;9774;52.034;5.342;2023-08-08T10:46:51;101169.00;;;24.70
19282;BMP180;9774;52.034;5.342;2023-08-08T10:49:19;101176.00;;;24.70
19282;BMP180;9774;52.034;5.342;2023-08-08T10:51:49;101171.00;;;24.70
19282;BMP180;9774;52.034;5.342;2023-08-08T10:54:21;101178.00;;;24.70
19282;BMP180;9774;52.034;5.342;2023-08-08T10:56:50;101186.00;;;24.80
19282;BMP180;9774;52.034;5.342;2023-08-08T10:59:20;101172.00;;;24.80
19282;BMP180;9774;52.034;5.342;2023-08-08T11:01:50;101175.00;;;24.80
19282;BMP180;9774;52.034;5.342;2023-08-08T11:04:21;101182.00;;;24.80
19282;BMP180;9774;52.034;5.342;2023-08-08T11:06:49;101183.00;;;24.80
19282;BMP180;9774;52.034;5.342;2023-08-08T11:09:17;101187.00;;;24.80
19282;BMP180;9774;52.034;5.342;2023-08-08T11:11:45;101185.00;;;24.80
19282;BMP180;9774;52.034;5.342;2023-08-08T11:14:14;101187.00;;;24.80
19282;BMP180;9774;52.034;5.342;2023-08-08T11:16:43;101182.00;;;24.80
19282;BMP180;9774;52.034;5.342;2023-08-08T11:19:12;101185.00;;;24.80
19282;BMP180;9774;52.034;5.342;2023-08-08T11:21:42;101173.00;;;24.80
19282;BMP180;9774;52.034;5.342;2023-08-08T11:24:10;101178.00;;;24.80
19282;BMP180;9774;52.034;5.342;2023-08-08T11:26:40;101173.00;;;24.80
19282;BMP180;9774;52.034;5.342;2023-08-08T11:29:07;101178.00;;;24.80
19282;BMP180;9774;52.034;5.342;2023-08-08T11:31:35;101183.00;;;24.90
19282;BMP180;9774;52.034;5.342;2023-08-08T11:34:03;101183.00;;;24.90
19282;BMP180;9774;52.034;5.342;2023-08-08T11:36:33;101173.00;;;24.90
19282;BMP180;9774;52.034;5.342;2023-08-08T11:39:03;101177.00;;;25.00
19282;BMP180;9774;52.034;5.342;2023-08-08T11:41:35;101172.00;;;25.00
19282;BMP180;9774;52.034;5.342;2023-08-08T11:44:03;101184.00;;;25.10
19282;BMP180;9774;52.034;5.342;2023-08-08T11:46:31;101175.00;;;25.10
19282;BMP180;9774;52.034;5.342;2023-08-08T11:49:03;101174.00;;;25.10
19282;BMP180;9774;52.034;5.342;2023-08-08T11:51:34;101173.00;;;25.10
19282;BMP180;9774;52.034;5.342;2023-08-08T11:54:03;101169.00;;;25.10
19282;BMP180;9774;52.034;5.342;2023-08-08T11:56:33;101167.00;;;25.10
19282;BMP180;9774;52.034;5.342;2023-08-08T11:59:01;101180.00;;;25.20
19282;BMP180;9774;52.034;5.342;2023-08-08T12:01:32;101170.00;;;25.20
19282;BMP180;9774;52.034;5.342;2023-08-08T12:04:05;101166.00;;;25.20
19282;BMP180;9774;52.034;5.342;2023-08-08T12:06:37;101175.00;;;25.20
19282;BMP180;9774;52.034;5.342;2023-08-08T12:09:05;101173.00;;;25.30
19282;BMP180;9774;52.034;5.342;2023-08-08T12:11:35;101188.00;;;25.30
19282;BMP180;9774;52.034;5.342;2023-08-08T12:14:03;101181.00;;;25.30
19282;BMP180;9774;52.034;5.342;2023-08-08T12:16:31;101173.00;;;25.30
19282;BMP180;9774;52.034;5.342;2023-08-08T12:19:00;101166.00;;;25.30
19282;BMP180;9774;52.034;5.342;2023-08-08T12:21:28;101167.00;;;25.30
19282;BMP180;9774;52.034;5.342;2023-08-08T12:23:56;101172.00;;;25.40
19282;BMP180;9774;52.034;5.342;2023-08-08T12:26:23;101172.00;;;25.40
19282;BMP180;9774;52.034;5.342;2023-08-08T12:28:50;101169.00;;;25.40
19282;BMP180;9774;52.034;5.342;2023-08-08T12:31:19;101179.00;;;25.40
19282;BMP180;9774;52.034;5.342;2023-08-08T12:33:46;101175.00;;;25.30
19282;BMP180;9774;52.034;5.342;2023-08-08T12:36:14;101168.00;;;25.20
19282;BMP180;9774;52.034;5.342;2023-08-08T12:38:41;101169.00;;;25.20
19282;BMP180;9774;52.034;5.342;2023-08-08T12:41:09;101174.00;;;25.10
19282;BMP180;9774;52.034;5.342;2023-08-08T12:43:37;101174.00;;;25.10
19282;BMP180;9774;52.034;5.342;2023-08-08T12:46:03;101164.00;;;25.00
19282;BMP180;9774;52.034;5.342;2023-08-08T12:48:30;101170.00;;;25.00
19282;BMP180;9774;52.034;5.342;2023-08-08T12:50:57;101166.00;;;25.00
19282;BMP180;9774;52.034;5.342;2023-08-08T12:53:24;101170.00;;;25.00
19282;BMP180;9774;52.034;5.342;2023-08-08T12:55:52;101172.00;;;25.00
19282;BMP180;9774;52.034;5.342;2023-08-08T12:58:20;101181.00;;;25.00
19282;BMP180;9774;52.034;5.342;2023-08-08T13:00:47;101164.00;;;25.00
19282;BMP180;9774;52.034;5.342;2023-08-08T13:03:14;101163.00;;;25.00
19282;BMP180;9774;52.034;5.342;2023-08-08T13:05:41;101168.00;;;25.00
19282;BMP180;9774;52.034;5.342;2023-08-08T13:08:08;101166.00;;;25.00
19282;BMP180;9774;52.034;5.342;2023-08-08T13:10:35;101169.00;;;25.00
19282;BMP180;9774;52.034;5.342;2023-08-08T13:13:02;101166.00;;;25.00
19282;BMP180;9774;52.034;5.342;2023-08-08T13:15:31;101183.00;;;25.00
19282;BMP180;9774;52.034;5.342;2023-08-08T13:17:58;101182.00;;;25.00
19282;BMP180;9774;52.034;5.342;2023-08-08T13:20:26;101174.00;;;24.90
19282;BMP180;9774;52.034;5.342;2023-08-08T13:22:53;101179.00;;;24.90
19282;BMP180;9774;52.034;5.342;2023-08-08T13:25:20;101174.00;;;24.90
19282;BMP180;9774;52.034;5.342;2023-08-08T13:27:47;101177.00;;;24.90
19282;BMP180;9774;52.034;5.342;2023-08-08T13:30:14;101178.00;;;24.90
19282;BMP180;9774;52.034;5.342;2023-08-08T13:32:43;101175.00;;;24.90
19282;BMP180;9774;52.034;5.342;2023-08-08T13:35:10;101182.00;;;24.90
19282;BMP180;9774;52.034;5.342;2023-08-08T13:37:37;101179.00;;;24.90
19282;BMP180;9774;52.034;5.342;2023-08-08T13:40:06;101182.00;;;24.90
19282;BMP180;9774;52.034;5.342;2023-08-08T13:42:33;101187.00;;;24.90
19282;BMP180;9774;52.034;5.342;2023-08-08T13:45:00;101196.00;;;24.90
19282;BMP180;9774;52.034;5.342;2023-08-08T13:47:27;101187.00;;;24.90
19282;BMP180;9774;52.034;5.342;2023-08-08T13:49:55;101195.00;;;24.80
19282;BMP180;9774;52.034;5.342;2023-08-08T13:52:22;101192.00;;;24.80
19282;BMP180;9774;52.034;5.342;2023-08-08T13:54:49;101197.00;;;24.80
19282;BMP180;9774;52.034;5.342;2023-08-08T13:57:17;101205.00;;;24.80
19282;BMP180;9774;52.034;5.342;2023-08-08T13:59:44;101194.00;;;24.80
19282;BMP180;9774;52.034;5.342;2023-08-08T14:02:11;101213.00;;;24.80
19282;BMP180;9774;52.034;5.342;2023-08-08T14:04:38;101193.00;;;24.80
19282;BMP180;9774;52.034;5.342;2023-08-08T14:07:06;101210.00;;;24.70
19282;BMP180;9774;52.034;5.342;2023-08-08T14:09:33;101204.00;;;24.70
19282;BMP180;9774;52.034;5.342;2023-08-08T14:12:00;101203.00;;;24.70
19282;BMP180;9774;52.034;5.342;2023-08-08T14:14:27;101196.00;;;24.70